sensor_id;sensor_type;location;lat;lon;timestamp;P1;durP1;ratioP1;P2;durP2;ratioP2
33206;SDS011;19565;46.602;11.534;2023-03-19T00:02:06;20.80;;;19.60;;
33206;SDS011;19565;46.602;11.534;2023-03-19T00:04:43;20.70;;;19.70;;
33206;SDS011;19565;46.602;11.534;2023-03-19T00:07:13;20.70;;;19.60;;
33206;SDS011;19565;46.602;11.534;2023-03-19T00:09:42;21.03;;;19.90;;
33206;SDS011;19565;46.602;11.534;2023-03-19T00:12:10;20.53;;;19.53;;
33206;SDS011;19565;46.602;11.534;2023-03-19T00:14:38;21.13;;;19.93;;
33206;SDS011;19565;46.602;11.534;2023-03-19T00:17:07;20.27;;;18.90;;
33206;SDS011;19565;46.602;11.534;2023-03-19T00:19:35;19.60;;;18.60;;
33206;SDS011;19565;46.602;11.534;2023-03-19T00:22:03;21.23;;;20.17;;
33206;SDS011;19565;46.602;11.534;2023-03-19T00:24:33;22.80;;;21.57;;
33206;SDS011;19565;46.602;11.534;2023-03-19T00:27:01;20.50;;;19.30;;
33206;SDS011;19565;46.602;11.534;2023-03-19T00:29:29;19.80;;;18.90;;
33206;SDS011;19565;46.602;11.534;2023-03-19T00:31:58;21.60;;;20.30;;
33206;SDS011;19565;46.602;11.534;2023-03-19T00:34:26;19.87;;;18.87;;
33206;SDS011;19565;46.602;11.534;2023-03-19T00:36:54;21.33;;;20.17;;
33206;SDS011;19565;46.602;11.534;2023-03-19T00:39:22;20.27;;;19.17;;
33206;SDS011;19565;46.602;11.534;2023-03-19T00:41:51;20.30;;;19.30;;
33206;SDS011;19565;46.602;11.534;2023-03-19T00:44:20;20.10;;;19.10;;
33206;SDS011;19565;46.602;11.534;2023-03-19T00:46:47;20.43;;;19.00;;
33206;SDS011;19565;46.602;11.534;2023-03-19T00:49:15;20.50;;;19.50;;
33206;SDS011;19565;46.602;11.534;2023-03-19T00:51:43;21.20;;;20.20;;
33206;SDS011;19565;46.602;11.534;2023-03-19T00:54:12;19.17;;;18.27;;
33206;SDS011;19565;46.602;11.534;2023-03-19T00:56:40;20.07;;;19.07;;
33206;SDS011;19565;46.602;11.534;2023-03-19T00:59:09;23.33;;;22.17;;
33206;SDS011;19565;46.602;11.534;2023-03-19T01:01:37;22.27;;;21.13;;
33206;SDS011;19565;46.602;11.534;2023-03-19T01:04:05;23.30;;;21.90;;
33206;SDS011;19565;46.602;11.534;2023-03-19T01:06:34;20.83;;;19.63;;
33206;SDS011;19565;46.602;11.534;2023-03-19T01:09:02;20.67;;;19.47;;
33206;SDS011;19565;46.602;11.534;2023-03-19T01:11:30;19.40;;;18.30;;
33206;SDS011;19565;46.602;11.534;2023-03-19T01:13:58;20.73;;;19.63;;
33206;SDS011;19565;46.602;11.534;2023-03-19T01:16:27;21.87;;;20.13;;
33206;SDS011;19565;46.602;11.534;2023-03-19T01:18:55;20.57;;;19.20;;
33206;SDS011;19565;46.602;11.534;2023-03-19T01:21:24;19.23;;;18.33;;
33206;SDS011;19565;46.602;11.534;2023-03-19T01:23:52;22.03;;;20.83;;
33206;SDS011;19565;46.602;11.534;2023-03-19T01:26:21;24.50;;;22.80;;
33206;SDS011;19565;46.602;11.534;2023-03-19T01:28:49;22.73;;;21.00;;
33206;SDS011;19565;46.602;11.534;2023-03-19T01:31:17;20.63;;;19.43;;
33206;SDS011;19565;46.602;11.534;2023-03-19T01:33:48;22.17;;;20.93;;
33206;SDS011;19565;46.602;11.534;2023-03-19T01:36:16;19.33;;;18.43;;
33206;SDS011;19565;46.602;11.534;2023-03-19T01:38:44;19.57;;;18.60;;
33206;SDS011;19565;46.602;11.534;2023-03-19T01:41:12;21.63;;;20.33;;
33206;SDS011;19565;46.602;11.534;2023-03-19T01:43:41;20.50;;;19.50;;
33206;SDS011;19565;46.602;11.534;2023-03-19T01:46:12;22.73;;;21.63;;
33206;SDS011;19565;46.602;11.534;2023-03-19T01:48:47;20.07;;;19.13;;
33206;SDS011;19565;46.602;11.534;2023-03-19T01:51:20;20.37;;;19.37;;
33206;SDS011;19565;46.602;11.534;2023-03-19T01:53:52;19.67;;;18.77;;
33206;SDS011;19565;46.602;11.534;2023-03-19T01:56:25;21.27;;;19.73;;
33206;SDS011;19565;46.602;11.534;2023-03-19T01:58:56;20.53;;;19.33;;
33206;SDS011;19565;46.602;11.534;2023-03-19T02:01:27;20.27;;;19.17;;
33206;SDS011;19565;46.602;11.534;2023-03-19T02:03:58;20.80;;;19.80;;
33206;SDS011;19565;46.602;11.534;2023-03-19T02:06:27;20.93;;;19.87;;
33206;SDS011;19565;46.602;11.534;2023-03-19T02:08:56;20.73;;;19.40;;
33206;SDS011;19565;46.602;11.534;2023-03-19T02:11:25;20.37;;;19.27;;
33206;SDS011;19565;46.602;11.534;2023-03-19T02:13:53;21.03;;;19.93;;
33206;SDS011;19565;46.602;11.534;2023-03-19T02:16:21;21.77;;;20.67;;
33206;SDS011;19565;46.602;11.534;2023-03-19T02:18:49;20.53;;;19.53;;
33206;SDS011;19565;46.602;11.534;2023-03-19T02:21:20;20.33;;;19.17;;
33206;SDS011;19565;46.602;11.534;2023-03-19T02:23:50;20.00;;;19.00;;
33206;SDS011;19565;46.602;11.534;2023-03-19T02:26:22;20.70;;;19.60;;
33206;SDS011;19565;46.602;11.534;2023-03-19T02:28:53;19.80;;;18.67;;
33206;SDS011;19565;46.602;11.534;2023-03-19T02:31:22;21.90;;;20.53;;
33206;SDS011;19565;46.602;11.534;2023-03-19T02:33:57;19.57;;;18.57;;
33206;SDS011;19565;46.602;11.534;2023-03-19T02:36:27;19.67;;;18.67;;
33206;SDS011;19565;46.602;11.534;2023-03-19T02:38:59;20.57;;;19.57;;
33206;SDS011;19565;46.602;11.534;2023-03-19T02:41:32;20.70;;;19.70;;
33206;SDS011;19565;46.602;11.534;2023-03-19T02:44:02;19.30;;;18.30;;
33206;SDS011;19565;46.602;11.534;2023-03-19T02:46:31;19.37;;;18.37;;
33206;SDS011;19565;46.602;11.534;2023-03-19T02:48:59;19.57;;;18.63;;
33206;SDS011;19565;46.602;11.534;2023-03-19T02:51:27;20.30;;;19.30;;
33206;SDS011;19565;46.602;11.534;2023-03-19T02:53:55;21.47;;;20.10;;
33206;SDS011;19565;46.602;11.534;2023-03-19T02:56:26;20.13;;;18.93;;
33206;SDS011;19565;46.602;11.534;2023-03-19T02:58:55;20.40;;;18.73;;
33206;SDS011;19565;46.602;11.534;2023-03-19T03:01:23;19.37;;;18.37;;
33206;SDS011;19565;46.602;11.534;2023-03-19T03:03:51;19.60;;;18.53;;
33206;SDS011;19565;46.602;11.534;2023-03-19T03:06:19;21.20;;;19.93;;
33206;SDS011;19565;46.602;11.534;2023-03-19T03:08:47;19.00;;;18.10;;
33206;SDS011;19565;46.602;11.534;2023-03-19T03:11:15;20.20;;;19.10;;
33206;SDS011;19565;46.602;11.534;2023-03-19T03:13:43;19.83;;;18.83;;
33206;SDS011;19565;46.602;11.534;2023-03-19T03:16:13;20.13;;;19.13;;
33206;SDS011;19565;46.602;11.534;2023-03-19T03:18:41;19.13;;;18.10;;
33206;SDS011;19565;46.602;11.534;2023-03-19T03:21:09;20.30;;;19.13;;
33206;SDS011;19565;46.602;11.534;2023-03-19T03:23:37;21.03;;;19.90;;
33206;SDS011;19565;46.602;11.534;2023-03-19T03:26:05;21.60;;;20.33;;
33206;SDS011;19565;46.602;11.534;2023-03-19T03:28:33;21.43;;;20.23;;
33206;SDS011;19565;46.602;11.534;2023-03-19T03:31:01;20.17;;;19.07;;
33206;SDS011;19565;46.602;11.534;2023-03-19T03:33:30;19.70;;;18.73;;
33206;SDS011;19565;46.602;11.534;2023-03-19T03:35:59;19.50;;;18.40;;
33206;SDS011;19565;46.602;11.534;2023-03-19T03:38:27;18.13;;;17.23;;
33206;SDS011;19565;46.602;11.534;2023-03-19T03:40:55;18.37;;;17.47;;
33206;SDS011;19565;46.602;11.534;2023-03-19T03:43:23;40.73;;;38.97;;
33206;SDS011;19565;46.602;11.534;2023-03-19T03:45:51;39.60;;;37.90;;
33206;SDS011;19565;46.602;11.534;2023-03-19T03:48:20;42.93;;;40.40;;
33206;SDS011;19565;46.602;11.534;2023-03-19T03:50:49;41.57;;;39.67;;
33206;SDS011;19565;46.602;11.534;2023-03-19T03:53:17;38.47;;;36.77;;
33206;SDS011;19565;46.602;11.534;2023-03-19T03:55:46;41.37;;;39.27;;
33206;SDS011;19565;46.602;11.534;2023-03-19T03:58:14;39.30;;;37.50;;
33206;SDS011;19565;46.602;11.534;2023-03-19T04:00:42;39.80;;;37.90;;
33206;SDS011;19565;46.602;11.534;2023-03-19T04:03:11;40.93;;;39.07;;
33206;SDS011;19565;46.602;11.534;2023-03-19T04:05:40;41.87;;;39.60;;
33206;SDS011;19565;46.602;11.534;2023-03-19T04:08:09;44.33;;;42.33;;
33206;SDS011;19565;46.602;11.534;2023-03-19T04:10:38;40.87;;;38.97;;
33206;SDS011;19565;46.602;11.534;2023-03-19T04:13:07;44.57;;;41.83;;
33206;SDS011;19565;46.602;11.534;2023-03-19T04:15:36;20.23;;;19.13;;
33206;SDS011;19565;46.602;11.534;2023-03-19T04:18:04;20.27;;;19.17;;
33206;SDS011;19565;46.602;11.534;2023-03-19T04:20:32;18.00;;;17.00;;
33206;SDS011;19565;46.602;11.534;2023-03-19T04:23:01;17.70;;;16.60;;
33206;SDS011;19565;46.602;11.534;2023-03-19T04:25:31;18.57;;;17.67;;
33206;SDS011;19565;46.602;11.534;2023-03-19T04:27:59;20.27;;;19.17;;
33206;SDS011;19565;46.602;11.534;2023-03-19T04:30:27;20.60;;;19.50;;
33206;SDS011;19565;46.602;11.534;2023-03-19T04:32:55;19.03;;;18.03;;
33206;SDS011;19565;46.602;11.534;2023-03-19T04:35:23;20.67;;;19.57;;
33206;SDS011;19565;46.602;11.534;2023-03-19T04:37:51;19.83;;;18.80;;
33206;SDS011;19565;46.602;11.534;2023-03-19T04:40:20;19.73;;;18.60;;
33206;SDS011;19565;46.602;11.534;2023-03-19T04:42:49;19.90;;;18.90;;
33206;SDS011;19565;46.602;11.534;2023-03-19T04:45:17;19.87;;;18.87;;
33206;SDS011;19565;46.602;11.534;2023-03-19T04:47:45;20.83;;;19.10;;
33206;SDS011;19565;46.602;11.534;2023-03-19T04:50:13;23.47;;;22.27;;
33206;SDS011;19565;46.602;11.534;2023-03-19T04:52:41;18.90;;;17.73;;
33206;SDS011;19565;46.602;11.534;2023-03-19T04:55:09;18.03;;;17.13;;
33206;SDS011;19565;46.602;11.534;2023-03-19T04:57:38;18.53;;;17.37;;
33206;SDS011;19565;46.602;11.534;2023-03-19T05:00:08;20.40;;;19.23;;
33206;SDS011;19565;46.602;11.534;2023-03-19T05:02:37;19.80;;;18.80;;
33206;SDS011;19565;46.602;11.534;2023-03-19T05:05:05;19.83;;;18.53;;
33206;SDS011;19565;46.602;11.534;2023-03-19T05:07:33;18.03;;;17.03;;
33206;SDS011;19565;46.602;11.534;2023-03-19T05:10:02;18.27;;;17.27;;
33206;SDS011;19565;46.602;11.534;2023-03-19T05:12:30;16.90;;;16.00;;
33206;SDS011;19565;46.602;11.534;2023-03-19T05:14:58;18.47;;;17.17;;
33206;SDS011;19565;46.602;11.534;2023-03-19T05:17:28;19.13;;;18.17;;
33206;SDS011;19565;46.602;11.534;2023-03-19T05:19:56;35.10;;;33.60;;
33206;SDS011;19565;46.602;11.534;2023-03-19T05:22:24;40.97;;;39.17;;
33206;SDS011;19565;46.602;11.534;2023-03-19T05:24:52;40.50;;;38.53;;
33206;SDS011;19565;46.602;11.534;2023-03-19T05:27:20;41.60;;;39.80;;
33206;SDS011;19565;46.602;11.534;2023-03-19T05:29:48;37.80;;;36.20;;
33206;SDS011;19565;46.602;11.534;2023-03-19T05:32:16;39.80;;;37.90;;
33206;SDS011;19565;46.602;11.534;2023-03-19T05:34:46;38.67;;;36.97;;
33206;SDS011;19565;46.602;11.534;2023-03-19T05:37:14;33.50;;;32.00;;
33206;SDS011;19565;46.602;11.534;2023-03-19T05:39:43;33.87;;;32.07;;
33206;SDS011;19565;46.602;11.534;2023-03-19T05:42:11;34.70;;;33.10;;
33206;SDS011;19565;46.602;11.534;2023-03-19T05:44:40;34.33;;;32.77;;
33206;SDS011;19565;46.602;11.534;2023-03-19T05:47:08;34.03;;;32.53;;
33206;SDS011;19565;46.602;11.534;2023-03-19T05:49:37;33.67;;;32.07;;
33206;SDS011;19565;46.602;11.534;2023-03-19T05:52:07;33.40;;;32.00;;
33206;SDS011;19565;46.602;11.534;2023-03-19T05:54:35;18.23;;;17.20;;
33206;SDS011;19565;46.602;11.534;2023-03-19T05:57:03;16.73;;;15.83;;
33206;SDS011;19565;46.602;11.534;2023-03-19T05:59:31;16.83;;;15.97;;
33206;SDS011;19565;46.602;11.534;2023-03-19T06:01:59;15.43;;;14.60;;
33206;SDS011;19565;46.602;11.534;2023-03-19T06:04:27;16.00;;;15.20;;
33206;SDS011;19565;46.602;11.534;2023-03-19T06:06:55;15.57;;;14.70;;
33206;SDS011;19565;46.602;11.534;2023-03-19T06:09:24;15.57;;;14.73;;
33206;SDS011;19565;46.602;11.534;2023-03-19T06:11:52;15.57;;;14.77;;
33206;SDS011;19565;46.602;11.534;2023-03-19T06:14:20;15.37;;;14.57;;
33206;SDS011;19565;46.602;11.534;2023-03-19T06:16:48;15.47;;;14.57;;
33206;SDS011;19565;46.602;11.534;2023-03-19T06:19:16;14.10;;;13.30;;
33206;SDS011;19565;46.602;11.534;2023-03-19T06:21:44;12.90;;;12.20;;
33206;SDS011;19565;46.602;11.534;2023-03-19T06:24:12;15.17;;;13.83;;
33206;SDS011;19565;46.602;11.534;2023-03-19T06:26:42;11.80;;;11.20;;
33206;SDS011;19565;46.602;11.534;2023-03-19T06:29:10;13.20;;;12.47;;
33206;SDS011;19565;46.602;11.534;2023-03-19T06:31:38;14.03;;;13.10;;
33206;SDS011;19565;46.602;11.534;2023-03-19T06:34:07;15.53;;;14.73;;
33206;SDS011;19565;46.602;11.534;2023-03-19T06:36:35;16.20;;;15.03;;
33206;SDS011;19565;46.602;11.534;2023-03-19T06:39:03;13.80;;;13.10;;
33206;SDS011;19565;46.602;11.534;2023-03-19T06:41:31;13.13;;;12.33;;
33206;SDS011;19565;46.602;11.534;2023-03-19T06:44:00;12.93;;;12.23;;
33206;SDS011;19565;46.602;11.534;2023-03-19T06:46:29;15.30;;;14.40;;
33206;SDS011;19565;46.602;11.534;2023-03-19T06:48:57;13.97;;;13.27;;
33206;SDS011;19565;46.602;11.534;2023-03-19T06:51:25;14.17;;;13.47;;
33206;SDS011;19565;46.602;11.534;2023-03-19T06:53:53;15.67;;;14.57;;
33206;SDS011;19565;46.602;11.534;2023-03-19T06:56:21;15.63;;;14.63;;
33206;SDS011;19565;46.602;11.534;2023-03-19T06:58:50;15.73;;;14.93;;
33206;SDS011;19565;46.602;11.534;2023-03-19T07:01:19;31.73;;;30.33;;
33206;SDS011;19565;46.602;11.534;2023-03-19T07:03:48;32.47;;;30.77;;
33206;SDS011;19565;46.602;11.534;2023-03-19T07:06:16;32.30;;;30.67;;
33206;SDS011;19565;46.602;11.534;2023-03-19T07:08:44;33.63;;;31.93;;
33206;SDS011;19565;46.602;11.534;2023-03-19T07:11:12;15.80;;;14.90;;
33206;SDS011;19565;46.602;11.534;2023-03-19T07:13:41;31.90;;;30.40;;
33206;SDS011;19565;46.602;11.534;2023-03-19T07:16:09;31.50;;;30.00;;
33206;SDS011;19565;46.602;11.534;2023-03-19T07:18:39;31.10;;;29.80;;
33206;SDS011;19565;46.602;11.534;2023-03-19T07:21:07;32.90;;;31.50;;
33206;SDS011;19565;46.602;11.534;2023-03-19T07:23:35;33.67;;;32.17;;
33206;SDS011;19565;46.602;11.534;2023-03-19T07:26:03;33.60;;;32.07;;
33206;SDS011;19565;46.602;11.534;2023-03-19T07:28:31;33.30;;;31.70;;
33206;SDS011;19565;46.602;11.534;2023-03-19T07:30:59;32.40;;;31.00;;
33206;SDS011;19565;46.602;11.534;2023-03-19T07:33:27;34.03;;;32.40;;
33206;SDS011;19565;46.602;11.534;2023-03-19T07:35:57;35.67;;;33.60;;
33206;SDS011;19565;46.602;11.534;2023-03-19T07:38:25;38.30;;;35.53;;
33206;SDS011;19565;46.602;11.534;2023-03-19T07:40:53;36.20;;;34.40;;
33206;SDS011;19565;46.602;11.534;2023-03-19T07:43:28;34.97;;;33.27;;
33206;SDS011;19565;46.602;11.534;2023-03-19T07:45:56;36.10;;;34.40;;
33206;SDS011;19565;46.602;11.534;2023-03-19T07:48:25;35.60;;;34.07;;
33206;SDS011;19565;46.602;11.534;2023-03-19T07:50:53;34.07;;;32.57;;
33206;SDS011;19565;46.602;11.534;2023-03-19T07:53:22;35.97;;;34.37;;
33206;SDS011;19565;46.602;11.534;2023-03-19T07:55:51;32.73;;;31.33;;
33206;SDS011;19565;46.602;11.534;2023-03-19T07:58:19;34.03;;;32.53;;
33206;SDS011;19565;46.602;11.534;2023-03-19T08:00:47;18.10;;;16.47;;
33206;SDS011;19565;46.602;11.534;2023-03-19T08:03:15;15.03;;;14.17;;
33206;SDS011;19565;46.602;11.534;2023-03-19T08:05:43;15.70;;;14.90;;
33206;SDS011;19565;46.602;11.534;2023-03-19T08:08:14;17.90;;;17.00;;
33206;SDS011;19565;46.602;11.534;2023-03-19T08:10:43;27.00;;;25.63;;
33206;SDS011;19565;46.602;11.534;2023-03-19T08:13:12;19.87;;;18.67;;
33206;SDS011;19565;46.602;11.534;2023-03-19T08:15:40;22.00;;;20.83;;
33206;SDS011;19565;46.602;11.534;2023-03-19T08:18:08;23.50;;;22.40;;
33206;SDS011;19565;46.602;11.534;2023-03-19T08:20:37;20.83;;;19.77;;
33206;SDS011;19565;46.602;11.534;2023-03-19T08:23:05;17.67;;;16.77;;
33206;SDS011;19565;46.602;11.534;2023-03-19T08:25:33;16.93;;;16.03;;
33206;SDS011;19565;46.602;11.534;2023-03-19T08:28:02;19.03;;;18.00;;
33206;SDS011;19565;46.602;11.534;2023-03-19T08:30:30;17.67;;;16.77;;
33206;SDS011;19565;46.602;11.534;2023-03-19T08:32:59;18.13;;;17.03;;
33206;SDS011;19565;46.602;11.534;2023-03-19T08:35:27;21.27;;;20.07;;
33206;SDS011;19565;46.602;11.534;2023-03-19T08:37:55;18.80;;;17.87;;
33206;SDS011;19565;46.602;11.534;2023-03-19T08:40:23;21.07;;;20.03;;
33206;SDS011;19565;46.602;11.534;2023-03-19T08:42:52;19.73;;;18.50;;
33206;SDS011;19565;46.602;11.534;2023-03-19T08:45:22;19.47;;;18.57;;
33206;SDS011;19565;46.602;11.534;2023-03-19T08:47:50;22.33;;;21.03;;
33206;SDS011;19565;46.602;11.534;2023-03-19T08:50:18;20.20;;;19.20;;
33206;SDS011;19565;46.602;11.534;2023-03-19T08:52:46;32.57;;;31.07;;
33206;SDS011;19565;46.602;11.534;2023-03-19T08:55:15;33.50;;;32.00;;
33206;SDS011;19565;46.602;11.534;2023-03-19T08:57:43;31.20;;;29.70;;
33206;SDS011;19565;46.602;11.534;2023-03-19T09:00:11;50.87;;;48.50;;
33206;SDS011;19565;46.602;11.534;2023-03-19T09:02:42;43.70;;;41.80;;
33206;SDS011;19565;46.602;11.534;2023-03-19T09:05:10;38.60;;;36.80;;
33206;SDS011;19565;46.602;11.534;2023-03-19T09:07:38;35.47;;;33.77;;
33206;SDS011;19565;46.602;11.534;2023-03-19T09:10:06;40.50;;;38.50;;
33206;SDS011;19565;46.602;11.534;2023-03-19T09:12:35;38.93;;;37.23;;
33206;SDS011;19565;46.602;11.534;2023-03-19T09:15:03;39.37;;;37.67;;
33206;SDS011;19565;46.602;11.534;2023-03-19T09:17:31;40.77;;;38.97;;
33206;SDS011;19565;46.602;11.534;2023-03-19T09:20:01;45.75;;;43.55;;
33206;SDS011;19565;46.602;11.534;2023-03-19T09:22:31;44.40;;;42.30;;
33206;SDS011;19565;46.602;11.534;2023-03-19T09:24:59;46.73;;;44.33;;
33206;SDS011;19565;46.602;11.534;2023-03-19T09:27:27;46.23;;;44.17;;
33206;SDS011;19565;46.602;11.534;2023-03-19T09:29:55;38.10;;;36.40;;
33206;SDS011;19565;46.602;11.534;2023-03-19T09:32:23;44.37;;;42.23;;
33206;SDS011;19565;46.602;11.534;2023-03-19T09:34:51;45.30;;;43.30;;
33206;SDS011;19565;46.602;11.534;2023-03-19T09:37:20;40.13;;;38.13;;
33206;SDS011;19565;46.602;11.534;2023-03-19T09:39:48;45.17;;;43.10;;
33206;SDS011;19565;46.602;11.534;2023-03-19T09:42:20;40.43;;;38.57;;
33206;SDS011;19565;46.602;11.534;2023-03-19T09:45:08;21.50;;;20.30;;
33206;SDS011;19565;46.602;11.534;2023-03-19T09:47:40;23.47;;;22.23;;
33206;SDS011;19565;46.602;11.534;2023-03-19T09:50:11;22.37;;;21.10;;
33206;SDS011;19565;46.602;11.534;2023-03-19T09:52:44;23.33;;;22.03;;
33206;SDS011;19565;46.602;11.534;2023-03-19T09:55:17;23.30;;;21.83;;
33206;SDS011;19565;46.602;11.534;2023-03-19T09:57:59;22.13;;;20.77;;
33206;SDS011;19565;46.602;11.534;2023-03-19T10:00:28;30.23;;;28.53;;
33206;SDS011;19565;46.602;11.534;2023-03-19T10:03:00;38.67;;;36.70;;
33206;SDS011;19565;46.602;11.534;2023-03-19T10:05:38;40.43;;;38.53;;
33206;SDS011;19565;46.602;11.534;2023-03-19T10:08:19;42.57;;;40.47;;
33206;SDS011;19565;46.602;11.534;2023-03-19T10:11:02;40.50;;;38.70;;
33206;SDS011;19565;46.602;11.534;2023-03-19T10:13:44;45.70;;;43.47;;
33206;SDS011;19565;46.602;11.534;2023-03-19T10:16:20;43.37;;;41.37;;
33206;SDS011;19565;46.602;11.534;2023-03-19T10:18:51;40.30;;;38.40;;
33206;SDS011;19565;46.602;11.534;2023-03-19T10:21:23;41.00;;;39.13;;
33206;SDS011;19565;46.602;11.534;2023-03-19T10:23:59;39.43;;;37.13;;
33206;SDS011;19565;46.602;11.534;2023-03-19T10:26:32;41.23;;;39.17;;
33206;SDS011;19565;46.602;11.534;2023-03-19T10:29:03;40.93;;;39.07;;
33206;SDS011;19565;46.602;11.534;2023-03-19T10:31:42;37.83;;;36.13;;
33206;SDS011;19565;46.602;11.534;2023-03-19T10:34:17;42.40;;;40.17;;
33206;SDS011;19565;46.602;11.534;2023-03-19T10:36:59;40.58;;;38.47;;
33206;SDS011;19565;46.602;11.534;2023-03-19T10:39:34;41.20;;;39.17;;
33206;SDS011;19565;46.602;11.534;2023-03-19T10:42:09;39.57;;;37.37;;
33206;SDS011;19565;46.602;11.534;2023-03-19T10:45:09;40.27;;;38.27;;
33206;SDS011;19565;46.602;11.534;2023-03-19T10:47:46;22.83;;;21.43;;
33206;SDS011;19565;46.602;11.534;2023-03-19T10:50:14;23.85;;;22.27;;
33206;SDS011;19565;46.602;11.534;2023-03-19T10:52:45;22.95;;;21.55;;
33206;SDS011;19565;46.602;11.534;2023-03-19T10:55:22;22.40;;;21.10;;
33206;SDS011;19565;46.602;11.534;2023-03-19T10:57:55;21.85;;;20.45;;
33206;SDS011;19565;46.602;11.534;2023-03-19T11:00:28;22.20;;;21.00;;
33206;SDS011;19565;46.602;11.534;2023-03-19T11:03:01;22.50;;;21.30;;
33206;SDS011;19565;46.602;11.534;2023-03-19T11:05:31;22.48;;;21.17;;
33206;SDS011;19565;46.602;11.534;2023-03-19T11:08:02;22.23;;;20.75;;
33206;SDS011;19565;46.602;11.534;2023-03-19T11:10:33;23.42;;;22.23;;
33206;SDS011;19565;46.602;11.534;2023-03-19T11:13:03;22.60;;;21.17;;
33206;SDS011;19565;46.602;11.534;2023-03-19T11:15:34;20.73;;;19.52;;
33206;SDS011;19565;46.602;11.534;2023-03-19T11:18:07;22.42;;;21.33;;
33206;SDS011;19565;46.602;11.534;2023-03-19T11:20:49;24.83;;;22.73;;
33206;SDS011;19565;46.602;11.534;2023-03-19T11:23:25;22.08;;;20.88;;
33206;SDS011;19565;46.602;11.534;2023-03-19T11:25:57;24.45;;;22.35;;
33206;SDS011;19565;46.602;11.534;2023-03-19T11:28:27;21.35;;;19.92;;
33206;SDS011;19565;46.602;11.534;2023-03-19T11:31:00;21.38;;;20.23;;
33206;SDS011;19565;46.602;11.534;2023-03-19T11:33:43;21.38;;;19.85;;
33206;SDS011;19565;46.602;11.534;2023-03-19T11:36:27;20.55;;;19.30;;
33206;SDS011;19565;46.602;11.534;2023-03-19T11:39:09;22.27;;;20.80;;
33206;SDS011;19565;46.602;11.534;2023-03-19T11:41:48;20.95;;;19.75;;
33206;SDS011;19565;46.602;11.534;2023-03-19T11:44:30;25.95;;;23.83;;
33206;SDS011;19565;46.602;11.534;2023-03-19T11:47:04;21.98;;;20.73;;
33206;SDS011;19565;46.602;11.534;2023-03-19T11:49:55;23.25;;;21.95;;
33206;SDS011;19565;46.602;11.534;2023-03-19T11:52:50;23.48;;;21.88;;
33206;SDS011;19565;46.602;11.534;2023-03-19T11:55:28;21.63;;;20.45;;
33206;SDS011;19565;46.602;11.534;2023-03-19T11:58:07;22.73;;;21.33;;
33206;SDS011;19565;46.602;11.534;2023-03-19T12:00:56;19.88;;;18.08;;
33206;SDS011;19565;46.602;11.534;2023-03-19T12:03:41;22.48;;;21.17;;
33206;SDS011;19565;46.602;11.534;2023-03-19T12:06:46;22.33;;;20.83;;
33206;SDS011;19565;46.602;11.534;2023-03-19T12:09:24;21.10;;;19.90;;
33206;SDS011;19565;46.602;11.534;2023-03-19T12:11:57;22.38;;;20.70;;
33206;SDS011;19565;46.602;11.534;2023-03-19T12:14:40;22.58;;;21.15;;
33206;SDS011;19565;46.602;11.534;2023-03-19T12:17:20;21.23;;;19.88;;
33206;SDS011;19565;46.602;11.534;2023-03-19T12:20:02;20.63;;;19.47;;
33206;SDS011;19565;46.602;11.534;2023-03-19T12:22:50;20.63;;;19.53;;
33206;SDS011;19565;46.602;11.534;2023-03-19T12:25:32;21.30;;;20.03;;
33206;SDS011;19565;46.602;11.534;2023-03-19T12:28:22;20.80;;;19.53;;
33206;SDS011;19565;46.602;11.534;2023-03-19T12:30:59;20.30;;;18.80;;
33206;SDS011;19565;46.602;11.534;2023-03-19T12:33:47;20.30;;;18.93;;
33206;SDS011;19565;46.602;11.534;2023-03-19T12:36:20;22.47;;;21.17;;
33206;SDS011;19565;46.602;11.534;2023-03-19T12:38:53;24.07;;;22.53;;
33206;SDS011;19565;46.602;11.534;2023-03-19T12:41:27;20.40;;;19.23;;
33206;SDS011;19565;46.602;11.534;2023-03-19T12:43:57;21.80;;;20.50;;
33206;SDS011;19565;46.602;11.534;2023-03-19T12:46:32;21.60;;;20.13;;
33206;SDS011;19565;46.602;11.534;2023-03-19T12:49:04;23.17;;;21.57;;
33206;SDS011;19565;46.602;11.534;2023-03-19T12:51:37;20.53;;;19.37;;
33206;SDS011;19565;46.602;11.534;2023-03-19T12:54:09;20.93;;;19.67;;
33206;SDS011;19565;46.602;11.534;2023-03-19T12:56:42;20.77;;;19.47;;
33206;SDS011;19565;46.602;11.534;2023-03-19T12:59:16;21.90;;;20.50;;
33206;SDS011;19565;46.602;11.534;2023-03-19T13:01:55;21.73;;;20.53;;
33206;SDS011;19565;46.602;11.534;2023-03-19T13:04:28;18.77;;;17.53;;
33206;SDS011;19565;46.602;11.534;2023-03-19T13:07:00;21.60;;;20.40;;
33206;SDS011;19565;46.602;11.534;2023-03-19T13:09:33;20.47;;;19.23;;
33206;SDS011;19565;46.602;11.534;2023-03-19T13:12:09;19.70;;;18.67;;
33206;SDS011;19565;46.602;11.534;2023-03-19T13:14:44;21.57;;;20.37;;
33206;SDS011;19565;46.602;11.534;2023-03-19T13:17:20;18.87;;;17.50;;
33206;SDS011;19565;46.602;11.534;2023-03-19T13:19:56;19.70;;;18.65;;
33206;SDS011;19565;46.602;11.534;2023-03-19T13:22:29;20.48;;;19.27;;
33206;SDS011;19565;46.602;11.534;2023-03-19T13:25:01;20.33;;;19.13;;
33206;SDS011;19565;46.602;11.534;2023-03-19T13:27:30;20.30;;;19.02;;
33206;SDS011;19565;46.602;11.534;2023-03-19T13:30:01;20.27;;;19.17;;
33206;SDS011;19565;46.602;11.534;2023-03-19T13:32:45;19.90;;;18.85;;
33206;SDS011;19565;46.602;11.534;2023-03-19T13:35:23;20.10;;;18.65;;
33206;SDS011;19565;46.602;11.534;2023-03-19T13:37:55;19.95;;;18.60;;
33206;SDS011;19565;46.602;11.534;2023-03-19T13:40:42;20.33;;;19.13;;
33206;SDS011;19565;46.602;11.534;2023-03-19T13:43:22;18.45;;;17.45;;
33206;SDS011;19565;46.602;11.534;2023-03-19T13:49:07;20.83;;;19.60;;
33206;SDS011;19565;46.602;11.534;2023-03-19T13:51:52;20.52;;;19.33;;
33206;SDS011;19565;46.602;11.534;2023-03-19T13:54:30;21.15;;;20.15;;
33206;SDS011;19565;46.602;11.534;2023-03-19T13:57:16;26.40;;;25.10;;
33206;SDS011;19565;46.602;11.534;2023-03-19T13:59:48;26.65;;;25.10;;
33206;SDS011;19565;46.602;11.534;2023-03-19T14:05:17;21.10;;;20.00;;
33206;SDS011;19565;46.602;11.534;2023-03-19T14:07:52;20.50;;;19.40;;
33206;SDS011;19565;46.602;11.534;2023-03-19T14:10:23;20.15;;;18.95;;
33206;SDS011;19565;46.602;11.534;2023-03-19T14:13:03;20.83;;;19.63;;
33206;SDS011;19565;46.602;11.534;2023-03-19T14:15:33;16.42;;;15.52;;
33206;SDS011;19565;46.602;11.534;2023-03-19T14:18:09;29.60;;;27.50;;
33206;SDS011;19565;46.602;11.534;2023-03-19T14:20:48;20.85;;;19.85;;
33206;SDS011;19565;46.602;11.534;2023-03-19T14:23:25;22.25;;;21.15;;
33206;SDS011;19565;46.602;11.534;2023-03-19T14:26:12;20.25;;;19.25;;
33206;SDS011;19565;46.602;11.534;2023-03-19T14:28:48;21.17;;;19.98;;
33206;SDS011;19565;46.602;11.534;2023-03-19T14:31:22;21.45;;;20.13;;
33206;SDS011;19565;46.602;11.534;2023-03-19T14:34:05;34.25;;;32.45;;
33206;SDS011;19565;46.602;11.534;2023-03-19T14:36:46;31.30;;;29.85;;
33206;SDS011;19565;46.602;11.534;2023-03-19T14:39:19;32.42;;;30.83;;